createdAt,value
2019-04-05T00:01:02.263Z,6.00
2019-04-05T00:03:34.786Z,6.10
2019-04-05T00:06:05.640Z,6.10
2019-04-05T00:08:37.361Z,6.10
2019-04-05T00:11:08.106Z,6.10
2019-04-05T00:13:38.845Z,6.10
2019-04-05T00:16:10.876Z,6.00
2019-04-05T00:18:41.615Z,6.00
2019-04-05T00:21:12.373Z,5.90
2019-04-05T00:23:44.110Z,5.90
2019-04-05T00:26:14.864Z,5.80
2019-04-05T00:28:45.706Z,5.80
2019-04-05T00:31:16.487Z,5.80
2019-04-05T00:33:47.302Z,5.80
2019-04-05T00:36:18.063Z,5.70
2019-04-05T00:38:51.770Z,5.70
2019-04-05T00:41:22.521Z,5.70
2019-04-05T00:43:53.270Z,5.70
2019-04-05T00:46:24.023Z,5.80
2019-04-05T00:48:54.793Z,5.80
2019-04-05T00:51:25.533Z,5.80
2019-04-05T00:53:56.319Z,5.90
2019-04-05T00:56:27.246Z,5.80
2019-04-05T00:58:58.112Z,5.80
2019-04-05T01:10:33.801Z,5.80
2019-04-05T01:13:04.568Z,5.80
2019-04-05T01:15:41.085Z,5.80
2019-04-05T01:18:08.722Z,5.80
2019-04-05T01:20:42.248Z,5.90
2019-04-05T01:23:22.478Z,5.90
2019-04-05T01:25:54.326Z,5.90
2019-04-05T01:28:25.591Z,5.90
2019-04-05T01:30:56.422Z,5.90
2019-04-05T01:33:27.377Z,6.00
2019-04-05T01:35:58.119Z,6.00
2019-04-05T01:38:32.245Z,6.00
2019-04-05T01:41:03.328Z,6.00
2019-04-05T01:43:34.084Z,6.00
2019-04-05T01:46:04.933Z,6.00
2019-04-05T01:48:35.674Z,6.00
2019-04-05T01:51:07.129Z,6.00
2019-04-05T01:53:39.218Z,6.00
2019-04-05T01:56:09.957Z,6.00
2019-04-05T01:58:40.699Z,5.90
2019-04-05T02:01:11.448Z,6.00
2019-04-05T02:03:42.185Z,5.90
2019-04-05T02:06:12.923Z,5.90
2019-04-05T02:08:43.651Z,5.90
2019-04-05T02:11:14.436Z,5.90
2019-04-05T02:13:45.186Z,5.90
2019-04-05T02:16:15.968Z,5.90
2019-04-05T02:18:46.751Z,5.90
2019-04-05T02:21:18.021Z,5.90
2019-04-05T02:23:48.761Z,5.90
2019-04-05T02:26:19.502Z,5.90
2019-04-05T02:28:50.254Z,5.90
2019-04-05T02:31:21.020Z,5.90
2019-04-05T02:33:51.767Z,5.90
2019-04-05T02:36:22.508Z,5.90
2019-04-05T02:38:53.352Z,5.90
2019-04-05T02:41:26.313Z,5.90
2019-04-05T02:43:58.167Z,5.90
2019-04-05T02:46:31.875Z,5.90
2019-04-05T02:49:04.384Z,6.00
2019-04-05T02:51:38.083Z,6.00
2019-04-05T02:54:09.335Z,6.00
2019-04-05T02:56:40.776Z,5.90
2019-04-05T02:59:12.019Z,6.00
2019-04-05T03:01:43.150Z,6.00
2019-04-05T03:04:14.003Z,5.90
2019-04-05T03:06:46.083Z,5.90
2019-04-05T03:09:17.040Z,5.90
2019-04-05T03:11:49.322Z,5.90
2019-04-05T03:14:21.071Z,5.90
2019-04-05T03:16:54.765Z,5.90
2019-04-05T03:19:29.720Z,5.90
2019-04-05T03:22:05.818Z,5.90
2019-04-05T03:24:39.635Z,5.90
2019-04-05T03:27:15.148Z,5.90
2019-04-05T03:29:46.419Z,5.90
2019-04-05T03:32:17.359Z,5.90
2019-04-05T03:34:48.597Z,5.90
2019-04-05T03:37:19.463Z,5.90
2019-04-05T03:39:50.304Z,5.90
2019-04-05T03:42:21.364Z,5.90
2019-04-05T03:44:52.285Z,5.90
2019-04-05T03:47:23.240Z,5.90
2019-04-05T03:49:53.999Z,5.90
2019-04-05T03:52:25.003Z,5.90
2019-04-05T03:54:55.780Z,5.90
2019-04-05T03:57:26.670Z,5.90
2019-04-05T03:59:57.430Z,5.90
2019-04-05T04:02:28.214Z,5.90
2019-04-05T04:04:59.058Z,5.90
2019-04-05T04:07:30.344Z,5.90
2019-04-05T04:10:01.762Z,5.90
2019-04-05T04:12:32.626Z,5.90
2019-04-05T04:15:15.601Z,5.90
2019-04-05T04:17:47.230Z,5.90
2019-04-05T04:20:39.253Z,5.90
2019-04-05T04:23:10.972Z,5.90
2019-04-05T04:25:42.126Z,5.90
2019-04-05T04:28:13.294Z,5.90
2019-04-05T04:30:44.081Z,5.90
2019-04-05T04:33:14.822Z,5.90
2019-04-05T04:35:45.881Z,5.90
2019-04-05T04:38:17.155Z,6.00
2019-04-05T04:40:48.278Z,6.00
2019-04-05T04:43:19.352Z,5.90
2019-04-05T04:45:50.206Z,5.90
2019-04-05T04:48:21.063Z,5.90
2019-04-05T04:50:52.210Z,5.90
2019-04-05T04:53:23.714Z,5.90
2019-04-05T04:55:54.685Z,6.00
2019-04-05T04:58:25.604Z,6.00
2019-04-05T05:00:56.650Z,6.00
2019-04-05T05:03:27.614Z,6.00
2019-04-05T05:05:58.644Z,6.00
2019-04-05T05:08:29.989Z,6.00
2019-04-05T05:11:13.693Z,6.00
2019-04-05T05:13:33.586Z,5.90
2019-04-05T05:16:05.263Z,5.90
2019-04-05T05:18:36.270Z,6.00
2019-04-05T05:21:07.443Z,6.00
2019-04-05T05:23:38.697Z,6.00
2019-04-05T05:26:09.548Z,6.00
2019-04-05T05:28:40.333Z,6.00
2019-04-05T05:31:11.465Z,6.00
2019-04-05T05:33:42.407Z,6.00
2019-04-05T05:36:13.454Z,6.00
2019-04-05T05:38:44.214Z,6.00
2019-04-05T05:41:15.071Z,6.00
2019-04-05T05:43:45.844Z,6.00
2019-04-05T05:46:16.644Z,6.00
2019-04-05T05:48:47.479Z,6.00
2019-04-05T05:51:18.281Z,6.10
2019-04-05T05:53:49.802Z,6.10
2019-04-05T05:56:20.584Z,6.10
2019-04-05T05:58:51.427Z,6.10
2019-04-05T06:01:22.185Z,6.10
2019-04-05T06:03:52.994Z,6.20
2019-04-05T06:06:23.746Z,6.10
2019-04-05T06:08:54.843Z,6.20
2019-04-05T06:11:25.615Z,6.20
2019-04-05T06:13:56.427Z,6.20
2019-04-05T06:16:27.222Z,6.20
2019-04-05T06:18:57.993Z,6.20
2019-04-05T06:21:28.814Z,6.20
2019-04-05T06:23:59.584Z,6.20
2019-04-05T06:26:30.361Z,6.30
2019-04-05T06:29:01.117Z,6.30
2019-04-05T06:31:31.864Z,6.30
2019-04-05T06:34:02.642Z,6.30
2019-04-05T06:36:33.515Z,6.40
2019-04-05T06:39:06.309Z,6.40
2019-04-05T06:41:37.094Z,6.40
2019-04-05T06:44:07.897Z,6.50
2019-04-05T06:46:38.694Z,6.50
2019-04-05T06:49:09.440Z,6.50
2019-04-05T06:51:40.211Z,6.50
2019-04-05T06:54:10.986Z,6.50
2019-04-05T06:56:41.754Z,6.60
2019-04-05T06:59:12.635Z,6.60
2019-04-05T07:01:43.534Z,6.70
2019-04-05T07:04:14.314Z,6.70
2019-04-05T07:06:45.100Z,6.70
2019-04-05T07:09:16.157Z,6.80
2019-04-05T07:11:46.911Z,6.80
2019-04-05T07:14:17.727Z,6.80
2019-04-05T07:16:49.040Z,6.80
2019-04-05T07:19:19.917Z,6.90
2019-04-05T07:21:50.686Z,6.90
2019-04-05T07:24:21.490Z,7.00
2019-04-05T07:26:52.399Z,7.00
2019-04-05T07:29:23.167Z,7.10
2019-04-05T07:31:55.489Z,7.20
2019-04-05T07:34:26.325Z,7.20
2019-04-05T07:36:57.118Z,7.20
2019-04-05T07:39:27.865Z,7.20
2019-04-05T07:41:58.638Z,7.20
2019-04-05T07:44:29.400Z,7.30
2019-04-05T07:47:00.215Z,7.30
2019-04-05T07:49:31.045Z,7.40
2019-04-05T07:52:01.940Z,7.40
2019-04-05T07:54:32.786Z,7.50
2019-04-05T07:57:03.675Z,7.50
2019-04-05T07:59:34.544Z,7.60
2019-04-05T08:02:05.455Z,7.60
2019-04-05T08:04:36.241Z,7.70
2019-04-05T08:07:07.970Z,7.70
2019-04-05T08:09:39.979Z,7.70
2019-04-05T08:12:10.971Z,7.80
2019-04-05T08:14:42.091Z,7.80
2019-04-05T08:17:12.990Z,7.80
2019-04-05T08:19:43.768Z,7.90
2019-04-05T08:22:14.610Z,8.00
2019-04-05T08:24:45.412Z,8.00
2019-04-05T08:27:16.198Z,8.10
2019-04-05T08:29:47.080Z,8.20
2019-04-05T08:32:17.944Z,8.20
2019-04-05T08:34:48.703Z,8.30
2019-04-05T08:37:19.516Z,8.40
2019-04-05T08:39:50.270Z,8.40
2019-04-05T08:42:21.029Z,8.40
2019-04-05T08:44:51.838Z,8.50
2019-04-05T08:47:22.821Z,8.60
2019-04-05T08:49:53.715Z,8.60
2019-04-05T08:52:26.933Z,8.60
2019-04-05T08:54:57.006Z,8.60
2019-04-05T08:57:27.881Z,8.70
2019-04-05T08:59:58.705Z,8.60
2019-04-05T09:02:29.483Z,8.60
2019-04-05T09:05:00.239Z,8.50
2019-04-05T09:07:31.025Z,8.50
2019-04-05T09:10:02.862Z,8.50
2019-04-05T09:12:33.654Z,8.40
2019-04-05T09:15:05.834Z,8.40
2019-04-05T09:17:36.638Z,8.40
2019-04-05T09:20:07.675Z,8.40
2019-04-05T09:22:38.525Z,8.40
2019-04-05T09:25:09.331Z,8.40
2019-04-05T09:27:40.220Z,8.40
2019-04-05T09:30:11.147Z,8.40
2019-04-05T09:32:41.972Z,8.40
2019-04-05T09:35:12.826Z,8.40
2019-04-05T09:37:43.617Z,8.40
2019-04-05T09:40:14.406Z,8.50
2019-04-05T09:42:45.187Z,8.50
2019-04-05T09:45:16.018Z,8.60
2019-04-05T09:47:46.810Z,8.50
2019-04-05T09:50:18.274Z,8.60
2019-04-05T09:52:49.123Z,8.60
2019-04-05T09:55:19.907Z,8.50
2019-04-05T09:57:50.686Z,8.50
2019-04-05T10:00:24.075Z,8.50
2019-04-05T10:02:54.939Z,8.50
2019-04-05T10:05:26.786Z,8.40
2019-04-05T10:07:57.560Z,8.40
2019-04-05T10:10:28.874Z,8.40
2019-04-05T10:12:59.720Z,8.40
2019-04-05T10:15:31.519Z,8.40
2019-04-05T10:18:02.351Z,8.40
2019-04-05T10:20:33.150Z,8.50
2019-04-05T10:23:03.955Z,8.50
2019-04-05T10:25:35.004Z,8.50
2019-04-05T10:28:06.071Z,8.50
2019-04-05T10:30:36.941Z,8.60
2019-04-05T10:33:07.724Z,8.60
2019-04-05T10:35:38.658Z,8.70
2019-04-05T10:38:09.422Z,8.70
2019-04-05T10:40:40.249Z,8.70
2019-04-05T10:43:11.169Z,8.80
2019-04-05T10:45:42.042Z,8.80
2019-04-05T10:48:12.918Z,8.90
2019-04-05T10:50:43.700Z,9.10
2019-04-05T10:53:14.540Z,9.20
2019-04-05T10:55:45.345Z,9.30
2019-04-05T10:58:16.322Z,9.30
2019-04-05T11:00:47.127Z,9.40
2019-04-05T11:03:18.004Z,9.40
2019-04-05T11:05:49.486Z,9.40
2019-04-05T11:08:20.437Z,9.40
2019-04-05T11:10:51.731Z,9.40
2019-04-05T11:13:22.594Z,9.40
2019-04-05T11:15:54.533Z,9.40
2019-04-05T11:18:25.320Z,9.40
2019-04-05T11:20:56.109Z,9.40
2019-04-05T11:23:27.984Z,9.40
2019-04-05T11:25:58.797Z,9.40
2019-04-05T11:28:29.604Z,9.40
2019-04-05T11:31:00.463Z,9.40
2019-04-05T11:33:31.372Z,9.40
2019-04-05T11:36:02.275Z,9.40
2019-04-05T11:38:33.191Z,9.40
2019-04-05T11:41:04.076Z,9.40
2019-04-05T11:43:35.996Z,9.30
2019-04-05T11:46:06.867Z,9.30
2019-04-05T11:48:37.827Z,9.30
2019-04-05T11:51:08.751Z,9.30
2019-04-05T11:53:39.586Z,9.30
2019-04-05T11:56:15.043Z,9.30
2019-04-05T11:58:48.397Z,9.30
2019-04-05T12:01:23.642Z,9.40
2019-04-05T12:03:54.606Z,9.50
2019-04-05T12:06:25.762Z,9.50
2019-04-05T12:08:56.669Z,9.60
2019-04-05T12:11:27.439Z,9.60
2019-04-05T12:13:58.213Z,9.60
2019-04-05T12:16:29.982Z,9.60
2019-04-05T12:19:04.366Z,9.70
2019-04-05T12:21:34.800Z,9.70
2019-04-05T12:24:05.839Z,9.70
2019-04-05T12:26:36.686Z,9.80
2019-04-05T12:29:07.465Z,9.80
2019-04-05T12:31:39.238Z,9.80
2019-04-05T12:34:10.238Z,9.70
2019-04-05T12:36:41.057Z,9.70
2019-04-05T12:39:11.835Z,9.70
2019-04-05T12:41:44.923Z,9.70
2019-04-05T12:44:15.556Z,9.70
2019-04-05T12:46:46.396Z,9.80
2019-04-05T12:49:17.220Z,9.80
2019-04-05T12:51:48.108Z,9.90
2019-04-05T12:54:18.902Z,10.00
2019-04-05T12:56:50.681Z,9.90
2019-04-05T12:59:21.499Z,10.00
2019-04-05T13:01:52.302Z,10.00
2019-04-05T13:04:23.073Z,10.00
2019-04-05T13:06:54.139Z,10.00
2019-04-05T13:09:25.048Z,10.00
2019-04-05T13:11:57.488Z,9.90
2019-04-05T13:14:28.490Z,9.90
2019-04-05T13:17:01.698Z,9.90
2019-04-05T13:19:33.276Z,9.90
2019-04-05T13:22:04.204Z,9.80
2019-04-05T13:24:35.078Z,9.80
2019-04-05T13:27:05.897Z,9.70
2019-04-05T13:29:36.766Z,9.70
2019-04-05T13:32:07.570Z,9.70
2019-04-05T13:34:38.438Z,9.70
2019-04-05T13:37:19.697Z,9.70
2019-04-05T13:39:41.809Z,9.70
2019-04-05T13:42:13.534Z,9.70
2019-04-05T13:44:44.374Z,9.80
2019-04-05T13:47:15.267Z,9.80
2019-04-05T13:49:46.121Z,9.70
2019-04-05T13:52:16.903Z,9.70
2019-04-05T13:54:47.703Z,9.60
2019-04-05T13:57:19.701Z,9.60
2019-04-05T13:59:50.554Z,9.60
2019-04-05T14:02:21.681Z,9.60
2019-04-05T14:04:53.866Z,9.50
2019-04-05T14:07:25.380Z,9.50
2019-04-05T14:09:56.251Z,9.50
2019-04-05T14:12:31.081Z,9.50
2019-04-05T14:15:00.743Z,9.50
2019-04-05T14:17:32.380Z,9.50
2019-04-05T14:20:03.168Z,9.50
2019-04-05T14:22:33.996Z,9.50
2019-04-05T14:25:06.292Z,9.50
2019-04-05T14:27:37.102Z,9.50
2019-04-05T14:30:08.122Z,9.50
2019-04-05T14:32:38.988Z,9.50
2019-04-05T14:35:10.019Z,9.40
2019-04-05T14:37:40.805Z,9.40
2019-04-05T14:40:14.004Z,9.40
2019-04-05T14:42:45.601Z,9.40
2019-04-05T14:45:16.580Z,9.40
2019-04-05T14:47:47.408Z,9.40
2019-04-05T14:50:18.180Z,9.30
2019-04-05T14:52:49.744Z,9.40
2019-04-05T14:55:20.826Z,9.30
2019-04-05T14:57:52.604Z,9.30
2019-04-05T15:00:25.039Z,9.30
2019-04-05T15:02:55.894Z,9.30
2019-04-05T15:05:26.693Z,9.20
2019-04-05T15:07:58.579Z,9.20
2019-04-05T15:10:29.441Z,9.20
2019-04-05T15:13:01.548Z,9.20
2019-04-05T15:15:32.390Z,9.20
2019-04-05T15:18:03.697Z,9.20
2019-04-05T15:20:35.437Z,9.20
2019-04-05T15:23:09.314Z,9.20
2019-04-05T15:25:38.898Z,9.20
2019-04-05T15:28:09.680Z,9.20
2019-04-05T15:30:41.429Z,9.10
2019-04-05T15:33:12.302Z,9.10
2019-04-05T15:35:43.121Z,9.10
2019-04-05T15:38:14.018Z,9.10
2019-04-05T15:40:44.922Z,9.10
2019-04-05T15:43:15.714Z,9.00
2019-04-05T15:45:46.614Z,9.10
2019-04-05T15:48:17.389Z,9.00
2019-04-05T15:50:49.421Z,9.00
2019-04-05T15:53:20.742Z,9.00
2019-04-05T15:55:51.559Z,8.90
2019-04-05T15:58:26.265Z,8.90
2019-04-05T16:00:57.008Z,8.90
2019-04-05T16:03:27.904Z,8.90
2019-04-05T16:05:58.691Z,8.80
2019-04-05T16:08:29.906Z,8.80
2019-04-05T16:11:00.767Z,8.80
2019-04-05T16:13:32.533Z,8.80
2019-04-05T16:16:03.380Z,8.80
2019-04-05T16:18:34.341Z,8.80
2019-04-05T16:21:05.220Z,8.80
2019-04-05T16:23:36.278Z,8.80
2019-04-05T16:26:07.103Z,8.80
2019-04-05T16:28:40.832Z,8.80
2019-04-05T16:31:10.417Z,8.70
2019-04-05T16:33:41.170Z,8.70
2019-04-05T16:36:12.003Z,8.70
2019-04-05T16:38:43.178Z,8.60
2019-04-05T16:41:13.987Z,8.60
2019-04-05T16:43:44.781Z,8.60
2019-04-05T16:46:15.599Z,8.60
2019-04-05T16:48:46.590Z,8.60
2019-04-05T16:51:17.447Z,8.50
2019-04-05T16:54:04.475Z,8.50
2019-04-05T16:56:35.349Z,8.50
2019-04-05T16:59:06.994Z,8.50
2019-04-05T17:01:37.894Z,8.40
2019-04-05T17:04:08.754Z,8.40
2019-04-05T17:06:39.650Z,8.40
2019-04-05T17:09:10.564Z,8.40
2019-04-05T17:11:41.474Z,8.40
2019-04-05T17:14:12.428Z,8.40
2019-04-05T17:16:44.283Z,8.40
2019-04-05T17:19:15.792Z,8.30
2019-04-05T17:21:46.600Z,8.30
2019-04-05T17:24:17.571Z,8.30
2019-04-05T17:26:48.368Z,8.30
2019-04-05T17:29:19.147Z,8.20
2019-04-05T17:31:49.952Z,8.20
2019-04-05T17:34:20.792Z,8.20
2019-04-05T17:36:51.572Z,8.20
2019-04-05T17:39:23.296Z,8.20
2019-04-05T17:41:56.515Z,8.20
2019-04-05T17:44:31.333Z,8.20
2019-04-05T17:47:03.298Z,8.20
2019-04-05T17:49:34.274Z,8.20
2019-04-05T17:52:05.168Z,8.20
2019-04-05T17:54:35.987Z,8.20
2019-04-05T17:57:06.826Z,8.20
2019-04-05T17:59:40.083Z,8.20
2019-04-05T18:02:10.902Z,8.10
2019-04-05T18:04:41.670Z,8.10
2019-04-05T18:07:12.501Z,8.10
2019-04-05T18:09:44.458Z,8.10
2019-04-05T18:12:15.281Z,8.10
2019-04-05T18:17:26.354Z,8.10
2019-04-05T18:19:59.421Z,8.10
2019-04-05T18:22:31.508Z,8.10
2019-04-05T18:25:02.444Z,8.10
2019-04-05T18:27:33.323Z,8.00
2019-04-05T18:30:04.954Z,8.00
2019-04-05T18:32:35.849Z,8.00
2019-04-05T18:35:07.345Z,8.00
2019-04-05T18:37:38.406Z,8.00
2019-04-05T18:40:09.565Z,8.00
2019-04-05T18:42:40.441Z,7.90
2019-04-05T18:45:11.468Z,8.00
2019-04-05T18:47:42.394Z,8.00
2019-04-05T18:50:13.856Z,8.00
2019-04-05T18:52:44.700Z,8.00
2019-04-05T18:55:15.598Z,8.00
2019-04-05T18:57:46.410Z,8.00
2019-04-05T19:00:17.434Z,7.90
2019-04-05T19:02:48.460Z,7.90
2019-04-05T19:05:19.352Z,7.90
2019-04-05T19:07:52.064Z,7.90
2019-04-05T19:10:36.033Z,7.90
2019-04-05T19:12:55.719Z,7.90
2019-04-05T19:15:26.696Z,7.90
2019-04-05T19:17:58.740Z,7.90
2019-04-05T19:20:30.913Z,7.90
2019-04-05T19:23:01.924Z,7.90
2019-04-05T19:25:32.836Z,7.90
2019-04-05T19:28:04.008Z,7.90
2019-04-05T19:50:59.368Z,7.90
2019-04-05T19:53:31.359Z,7.80
2019-04-05T19:56:03.876Z,7.80
2019-04-05T19:58:34.910Z,7.80
2019-04-05T20:01:06.062Z,7.80
2019-04-05T20:03:37.035Z,7.80
2019-04-05T20:06:09.117Z,7.80
2019-04-05T20:08:40.166Z,7.80
2019-04-05T20:11:11.299Z,7.80
2019-04-05T20:13:42.177Z,7.80
2019-04-05T20:16:13.221Z,7.80
2019-04-05T20:18:45.496Z,7.70
2019-04-05T20:21:17.311Z,7.80
2019-04-05T20:23:48.385Z,7.70
2019-04-05T20:26:19.397Z,7.70
2019-04-05T20:28:50.327Z,7.70
2019-04-05T20:31:21.377Z,7.80
2019-04-05T20:33:52.201Z,7.70
2019-04-05T20:36:23.312Z,7.70
2019-04-05T20:38:54.362Z,7.80
2019-04-05T20:41:26.378Z,7.70
2019-04-05T20:43:57.631Z,7.80
2019-04-05T20:46:28.602Z,7.70
2019-04-05T20:48:59.607Z,7.80
2019-04-05T20:51:30.742Z,7.70
2019-04-05T20:54:01.697Z,7.70
2019-04-05T20:56:32.721Z,7.70
2019-04-05T20:59:03.772Z,7.80
2019-04-05T21:01:34.703Z,7.70
2019-04-05T21:04:05.665Z,7.70
2019-04-05T21:06:36.723Z,7.70
2019-04-05T21:09:08.589Z,7.80
2019-04-05T21:11:39.491Z,7.80
2019-04-05T21:14:10.543Z,7.80
2019-04-05T21:16:41.516Z,7.80
2019-04-05T21:19:16.482Z,7.80
2019-04-05T21:21:47.802Z,7.80
2019-04-05T21:24:18.802Z,7.80
2019-04-05T21:26:49.773Z,7.80
2019-04-05T21:29:20.699Z,7.80
2019-04-05T21:31:51.526Z,7.80
2019-04-05T21:34:22.496Z,7.80
2019-04-05T21:36:53.410Z,7.80
2019-04-05T21:39:24.241Z,7.70
2019-04-05T21:41:55.222Z,7.70
2019-04-05T21:44:26.249Z,7.80
2019-04-05T21:46:57.242Z,7.80
2019-04-05T21:49:28.448Z,7.70
2019-04-05T21:51:59.383Z,7.70
2019-04-05T21:54:30.239Z,7.70
2019-04-05T21:57:01.199Z,7.70
2019-04-05T21:59:32.030Z,7.70
2019-04-05T22:02:03.193Z,7.70
2019-04-05T22:04:34.097Z,7.80
2019-04-05T22:07:05.071Z,7.70
2019-04-05T22:09:35.916Z,7.80
2019-04-05T22:12:06.815Z,7.70
2019-04-05T22:14:37.665Z,7.80
2019-04-05T22:17:09.857Z,7.80
2019-04-05T22:19:41.129Z,7.70
2019-04-05T22:22:12.256Z,7.70
2019-04-05T22:24:44.777Z,7.70
2019-04-05T22:27:16.726Z,7.70
2019-04-05T22:29:47.528Z,7.70
2019-04-05T22:32:19.487Z,7.70
2019-04-05T22:34:50.249Z,7.70
2019-04-05T22:37:21.098Z,7.70
2019-04-05T22:39:51.893Z,7.70
2019-04-05T22:42:22.706Z,7.70
2019-04-05T22:44:53.496Z,7.70
2019-04-05T22:47:24.431Z,7.70
2019-04-05T22:49:55.202Z,7.70
2019-04-05T22:52:25.946Z,7.70
2019-04-05T22:54:58.283Z,7.70
2019-04-05T22:57:29.059Z,7.60
2019-04-05T23:00:00.116Z,7.60
2019-04-05T23:02:31.043Z,7.60
2019-04-05T23:05:01.991Z,7.60
2019-04-05T23:07:32.850Z,7.60
2019-04-05T23:10:03.917Z,7.60
2019-04-05T23:12:34.830Z,7.60
2019-04-05T23:15:06.642Z,7.60
2019-04-05T23:17:38.536Z,7.60
2019-04-05T23:20:09.732Z,7.70
2019-04-05T23:22:41.574Z,7.60
2019-04-05T23:25:21.506Z,7.70
2019-04-05T23:27:45.109Z,7.70
2019-04-05T23:30:16.445Z,7.60
2019-04-05T23:32:47.383Z,7.70
2019-04-05T23:35:18.421Z,7.60
2019-04-05T23:37:49.211Z,7.70
2019-04-05T23:40:20.079Z,7.60
2019-04-05T23:42:50.866Z,7.60
2019-04-05T23:45:21.655Z,7.70
2019-04-05T23:47:52.431Z,7.60
2019-04-05T23:50:23.254Z,7.70
2019-04-05T23:52:54.026Z,7.60
2019-04-05T23:55:33.249Z,7.60
2019-04-05T23:57:59.554Z,7.70
